createdAt,value
2019-04-07T00:00:41.775Z,99903.28
2019-04-07T00:03:08.493Z,99905.86
2019-04-07T00:05:35.668Z,99908.41
2019-04-07T00:08:03.358Z,99899.88
2019-04-07T00:10:30.440Z,99896.37
2019-04-07T00:12:57.394Z,99888.55
2019-04-07T00:15:24.219Z,99887.77
2019-04-07T00:17:51.073Z,99885.09
2019-04-07T00:20:17.754Z,99886.65
2019-04-07T00:22:44.377Z,99882.91
2019-04-07T00:25:11.863Z,99882.41
2019-04-07T00:27:39.155Z,99885.69
2019-04-07T00:30:06.839Z,99874.85
2019-04-07T00:32:35.007Z,99869.80
2019-04-07T00:35:05.490Z,99869.09
2019-04-07T00:37:32.738Z,99872.27
2019-04-07T00:39:59.698Z,99871.83
2019-04-07T00:42:27.371Z,99872.70
2019-04-07T00:44:55.516Z,99865.28
2019-04-07T00:47:22.067Z,99871.17
2019-04-07T00:49:48.626Z,99866.42
2019-04-07T00:52:17.327Z,99860.69
2019-04-07T00:54:44.216Z,99862.98
2019-04-07T00:57:10.999Z,99868.94
2019-04-07T00:59:37.587Z,99858.30
2019-04-07T01:02:04.472Z,99850.67
2019-04-07T01:04:31.031Z,99848.91
2019-04-07T01:06:57.620Z,99850.66
2019-04-07T01:09:24.538Z,99856.44
2019-04-07T01:11:52.260Z,99848.36
2019-04-07T01:14:19.298Z,99844.94
2019-04-07T01:16:46.143Z,99852.43
2019-04-07T01:19:13.371Z,99844.70
2019-04-07T01:21:40.548Z,99845.38
2019-04-07T01:24:07.273Z,99852.50
2019-04-07T01:26:34.052Z,99844.08
2019-04-07T01:29:01.399Z,99839.20
2019-04-07T01:31:28.773Z,99838.12
2019-04-07T01:33:55.371Z,99842.83
2019-04-07T01:36:22.588Z,99833.30
2019-04-07T01:38:49.446Z,99840.21
2019-04-07T01:41:18.604Z,99842.34
2019-04-07T01:43:48.082Z,99842.27
2019-04-07T01:46:17.514Z,99848.06
2019-04-07T01:48:46.829Z,99847.22
2019-04-07T01:51:15.749Z,99844.00
2019-04-07T01:53:44.598Z,99850.89
2019-04-07T01:56:14.041Z,99839.59
2019-04-07T01:58:42.882Z,99842.28
2019-04-07T02:01:12.044Z,99842.64
2019-04-07T02:03:41.925Z,99841.03
2019-04-07T02:06:12.015Z,99842.18
2019-04-07T02:08:41.722Z,99839.48
2019-04-07T02:11:10.619Z,99843.19
2019-04-07T02:13:40.450Z,99844.77
2019-04-07T02:16:10.280Z,99843.13
2019-04-07T02:18:38.917Z,99834.61
2019-04-07T02:21:08.444Z,99835.38
2019-04-07T02:23:37.275Z,99839.40
2019-04-07T02:26:06.053Z,99846.54
2019-04-07T02:28:35.045Z,99836.90
2019-04-07T02:31:06.101Z,99837.88
2019-04-07T02:33:35.002Z,99839.78
2019-04-07T02:36:15.703Z,99847.30
2019-04-07T02:38:34.570Z,99845.73
2019-04-07T02:41:04.216Z,99850.55
2019-04-07T02:43:33.930Z,99852.88
2019-04-07T02:46:02.806Z,99853.45
2019-04-07T02:48:32.240Z,99851.20
2019-04-07T02:51:01.311Z,99853.55
2019-04-07T02:53:30.805Z,99848.33
2019-04-07T02:55:57.814Z,99846.19
2019-04-07T02:58:27.157Z,99849.76
2019-04-07T03:00:56.219Z,99849.97
2019-04-07T03:03:24.983Z,99840.91
2019-04-07T03:05:55.076Z,99844.83
2019-04-07T03:08:25.067Z,99849.69
2019-04-07T03:10:55.482Z,99846.52
2019-04-07T03:13:24.588Z,99846.52
2019-04-07T03:15:53.470Z,99844.05
2019-04-07T03:18:26.246Z,99848.19
2019-04-07T03:20:53.836Z,99843.48
2019-04-07T03:23:22.783Z,99848.70
2019-04-07T03:25:51.345Z,99852.81
2019-04-07T03:28:19.941Z,99848.13
2019-04-07T03:30:48.939Z,99850.49
2019-04-07T03:33:21.177Z,99865.31
2019-04-07T03:35:50.952Z,99862.27
2019-04-07T03:38:19.014Z,99856.90
2019-04-07T03:40:48.202Z,99858.83
2019-04-07T03:43:17.716Z,99860.83
2019-04-07T03:45:46.718Z,99858.06
2019-04-07T03:48:15.795Z,99855.86
2019-04-07T03:50:44.825Z,99857.92
2019-04-07T03:53:13.611Z,99856.27
2019-04-07T03:55:42.427Z,99858.14
2019-04-07T03:58:12.203Z,99853.83
2019-04-07T04:00:45.217Z,99856.92
2019-04-07T04:03:14.944Z,99860.66
2019-04-07T04:05:45.166Z,99853.55
2019-04-07T04:08:13.983Z,99851.55
2019-04-07T04:10:43.531Z,99851.91
2019-04-07T04:13:12.349Z,99851.41
2019-04-07T04:15:41.540Z,99853.28
2019-04-07T04:18:08.298Z,99852.86
2019-04-07T04:20:34.914Z,99855.77
2019-04-07T04:23:01.531Z,99859.27
2019-04-07T04:25:28.354Z,99857.80
2019-04-07T04:27:55.110Z,99864.87
2019-04-07T04:30:21.783Z,99854.72
2019-04-07T04:32:48.514Z,99863.45
2019-04-07T04:35:15.090Z,99855.34
2019-04-07T04:37:48.205Z,99859.03
2019-04-07T04:40:11.374Z,99859.27
2019-04-07T04:42:37.989Z,99862.78
2019-04-07T04:45:08.037Z,99863.63
2019-04-07T04:47:35.079Z,99868.50
2019-04-07T04:50:06.700Z,99857.61
2019-04-07T04:52:34.777Z,99872.29
2019-04-07T04:55:02.028Z,99869.38
2019-04-07T04:57:29.019Z,99876.50
2019-04-07T04:59:55.975Z,99871.84
2019-04-07T05:02:23.562Z,99874.52
2019-04-07T05:04:50.540Z,99877.02
2019-04-07T05:07:17.138Z,99879.02
2019-04-07T05:09:48.874Z,99875.70
2019-04-07T05:12:12.811Z,99879.51
2019-04-07T05:14:40.073Z,99877.33
2019-04-07T05:17:07.389Z,99875.92
2019-04-07T05:19:34.443Z,99873.92
2019-04-07T05:22:01.362Z,99872.16
2019-04-07T05:24:28.411Z,99875.95
2019-04-07T05:26:55.812Z,99884.59
2019-04-07T05:29:22.844Z,99877.80
2019-04-07T05:31:50.298Z,99878.63
2019-04-07T05:34:20.408Z,99889.11
2019-04-07T05:36:45.799Z,99884.75
2019-04-07T05:39:12.770Z,99891.00
2019-04-07T05:41:39.600Z,99891.14
2019-04-07T05:44:06.398Z,99885.33
2019-04-07T05:46:33.558Z,99890.12
2019-04-07T05:49:00.581Z,99891.80
2019-04-07T05:51:30.041Z,99885.18
2019-04-07T05:53:55.975Z,99882.56
2019-04-07T05:56:25.889Z,99884.38
2019-04-07T05:58:51.705Z,99889.31
2019-04-07T06:01:22.574Z,99885.91
2019-04-07T06:03:47.888Z,99882.42
2019-04-07T06:06:14.872Z,99885.88
2019-04-07T06:08:42.241Z,99886.22
2019-04-07T06:11:08.947Z,99884.97
2019-04-07T06:13:35.619Z,99882.52
2019-04-07T06:16:03.053Z,99881.11
2019-04-07T06:18:33.363Z,99885.48
2019-04-07T06:20:58.612Z,99878.36
2019-04-07T06:23:28.564Z,99877.30
2019-04-07T06:25:57.164Z,99876.48
2019-04-07T06:28:22.762Z,99871.94
2019-04-07T06:30:49.590Z,99873.69
2019-04-07T06:33:16.358Z,99880.11
2019-04-07T06:35:44.993Z,99872.83
2019-04-07T06:38:12.274Z,99879.83
2019-04-07T06:40:39.330Z,99876.83
2019-04-07T06:43:06.344Z,99879.69
2019-04-07T06:45:36.127Z,99888.72
2019-04-07T06:48:07.715Z,99877.09
2019-04-07T06:50:45.462Z,99886.17
2019-04-07T06:53:10.600Z,99897.81
2019-04-07T06:55:36.721Z,99904.05
2019-04-07T06:58:07.559Z,99905.80
2019-04-07T07:00:36.457Z,99906.45
2019-04-07T07:03:05.325Z,99896.83
2019-04-07T07:05:35.985Z,99903.70
2019-04-07T07:08:05.032Z,99901.30
2019-04-07T07:10:37.736Z,99902.20
2019-04-07T07:13:09.408Z,99905.06
2019-04-07T07:15:36.423Z,99891.77
2019-04-07T07:18:05.784Z,99893.41
2019-04-07T07:20:34.438Z,99891.93
2019-04-07T07:23:03.880Z,99888.61
2019-04-07T07:25:32.160Z,99896.64
2019-04-07T07:28:01.582Z,99892.28
2019-04-07T07:30:28.473Z,99894.61
2019-04-07T07:32:55.277Z,99899.41
2019-04-07T07:35:22.356Z,99903.81
2019-04-07T07:37:50.022Z,99899.96
2019-04-07T07:40:18.330Z,99896.32
2019-04-07T07:42:48.649Z,99895.17
2019-04-07T07:45:14.233Z,99897.22
2019-04-07T07:47:41.582Z,99895.50
2019-04-07T07:50:10.221Z,99895.05
2019-04-07T07:52:37.662Z,99893.52
2019-04-07T07:55:06.089Z,99888.64
2019-04-07T07:57:32.819Z,99896.54
2019-04-07T08:00:00.287Z,99899.13
2019-04-07T08:02:29.030Z,99900.22
2019-04-07T08:04:58.387Z,99898.04
2019-04-07T08:07:24.743Z,99900.07
2019-04-07T08:09:54.062Z,99906.14
2019-04-07T08:12:20.640Z,99892.62
2019-04-07T08:14:50.398Z,99888.94
2019-04-07T08:17:17.204Z,99892.16
2019-04-07T08:19:45.406Z,99891.56
2019-04-07T08:22:25.329Z,99892.25
2019-04-07T08:24:42.035Z,99885.25
2019-04-07T08:27:10.506Z,99878.98
2019-04-07T08:29:39.021Z,99877.78
2019-04-07T08:32:06.608Z,99882.38
2019-04-07T08:34:33.473Z,99882.73
2019-04-07T08:37:00.854Z,99885.39
2019-04-07T08:39:32.376Z,99879.36
2019-04-07T08:41:57.219Z,99883.89
2019-04-07T08:44:27.439Z,99879.34
2019-04-07T08:46:52.941Z,99875.98
2019-04-07T08:49:23.696Z,99879.80
2019-04-07T08:51:48.526Z,99884.86
2019-04-07T08:54:16.930Z,99885.21
2019-04-07T08:56:43.687Z,99885.59
2019-04-07T08:59:13.901Z,99882.15
2019-04-07T09:01:38.946Z,99877.63
2019-04-07T09:04:09.359Z,99879.64
2019-04-07T09:06:36.206Z,99883.16
2019-04-07T09:09:07.915Z,99884.17
2019-04-07T09:11:34.844Z,99878.14
2019-04-07T09:14:04.197Z,99879.16
2019-04-07T09:16:32.589Z,99880.23
2019-04-07T09:19:04.976Z,99877.16
2019-04-07T09:21:38.726Z,99879.61
2019-04-07T09:24:02.530Z,99876.34
2019-04-07T09:26:31.127Z,99876.34
2019-04-07T09:28:59.613Z,99869.39
2019-04-07T09:31:28.295Z,99862.66
2019-04-07T09:33:58.663Z,99872.61
2019-04-07T09:36:27.653Z,99866.48
2019-04-07T09:39:01.435Z,99870.39
2019-04-07T09:41:29.525Z,99871.06
2019-04-07T09:44:01.147Z,99872.09
2019-04-07T09:46:29.048Z,99870.27
2019-04-07T09:48:57.700Z,99865.29
2019-04-07T09:51:26.558Z,99866.05
2019-04-07T09:53:55.653Z,99862.34
2019-04-07T09:56:29.191Z,99860.80
2019-04-07T09:58:55.617Z,99865.72
2019-04-07T10:01:27.822Z,99863.63
2019-04-07T10:03:55.553Z,99863.66
2019-04-07T10:06:27.628Z,99866.59
2019-04-07T10:08:58.883Z,99864.66
2019-04-07T10:11:28.517Z,99863.45
2019-04-07T10:13:57.781Z,99859.50
2019-04-07T10:16:27.040Z,99858.00
2019-04-07T10:18:57.652Z,99858.25
2019-04-07T10:21:26.487Z,99871.64
2019-04-07T10:23:55.303Z,99861.14
2019-04-07T10:26:24.399Z,99859.77
2019-04-07T10:28:53.246Z,99865.48
2019-04-07T10:31:22.446Z,99860.58
2019-04-07T10:33:51.487Z,99860.80
2019-04-07T10:36:20.642Z,99859.98
2019-04-07T10:38:51.453Z,99861.94
2019-04-07T10:41:20.738Z,99864.30
2019-04-07T10:43:50.287Z,99865.88
2019-04-07T10:46:19.121Z,99865.01
2019-04-07T10:48:47.771Z,99862.80
2019-04-07T10:51:17.483Z,99862.16
2019-04-07T10:53:46.243Z,99858.09
2019-04-07T10:56:14.733Z,99864.27
2019-04-07T10:58:43.615Z,99856.05
2019-04-07T11:01:12.631Z,99862.71
2019-04-07T11:03:41.327Z,99852.70
2019-04-07T11:06:09.895Z,99856.59
2019-04-07T11:08:38.416Z,99862.36
2019-04-07T11:11:07.879Z,99860.31
2019-04-07T11:13:36.520Z,99862.11
2019-04-07T11:16:08.146Z,99857.55
2019-04-07T11:18:36.740Z,99852.67
2019-04-07T11:21:05.546Z,99845.20
2019-04-07T11:23:34.852Z,99855.21
2019-04-07T11:26:04.556Z,99852.10
2019-04-07T11:28:34.083Z,99853.77
2019-04-07T11:31:02.566Z,99857.77
2019-04-07T11:33:31.914Z,99853.55
2019-04-07T11:36:00.708Z,99854.02
2019-04-07T11:38:32.289Z,99860.20
2019-04-07T11:41:02.554Z,99857.67
2019-04-07T11:43:32.534Z,99857.52
2019-04-07T11:46:03.274Z,99855.72
2019-04-07T11:48:33.104Z,99855.34
2019-04-07T11:51:02.102Z,99852.57
2019-04-07T11:53:30.775Z,99851.23
2019-04-07T11:56:01.476Z,99846.41
2019-04-07T11:58:33.218Z,99845.79
2019-04-07T12:01:00.722Z,99849.06
2019-04-07T12:03:29.948Z,99853.06
2019-04-07T12:05:59.792Z,99846.87
2019-04-07T12:08:33.390Z,99849.05
2019-04-07T12:11:02.834Z,99843.82
2019-04-07T12:13:31.284Z,99836.48
2019-04-07T12:16:00.410Z,99847.02
2019-04-07T12:18:29.780Z,99843.70
2019-04-07T12:21:02.486Z,99847.34
2019-04-07T12:23:29.182Z,99844.46
2019-04-07T12:25:57.894Z,99840.61
2019-04-07T12:28:26.833Z,99846.88
2019-04-07T12:30:56.364Z,99842.89
2019-04-07T12:33:25.308Z,99842.80
2019-04-07T12:35:56.039Z,99839.66
2019-04-07T12:38:25.267Z,99840.36
2019-04-07T12:41:03.986Z,99840.95
2019-04-07T12:43:24.976Z,99836.86
2019-04-07T12:45:53.756Z,99834.45
2019-04-07T12:48:23.105Z,99843.34
2019-04-07T12:50:52.339Z,99843.36
2019-04-07T12:53:21.916Z,99842.99
2019-04-07T12:55:57.581Z,99839.70
2019-04-07T12:58:21.457Z,99832.27
2019-04-07T13:00:57.771Z,99831.05
2019-04-07T13:03:21.154Z,99835.67
2019-04-07T13:05:50.895Z,99832.02
2019-04-07T13:08:22.590Z,99827.73
2019-04-07T13:10:51.177Z,99831.29
2019-04-07T13:13:22.280Z,99830.98
2019-04-07T13:15:51.284Z,99832.20
2019-04-07T13:18:20.571Z,99827.67
2019-04-07T13:20:51.053Z,99830.80
2019-04-07T13:23:19.795Z,99818.52
2019-04-07T13:25:53.173Z,99825.02
2019-04-07T13:28:19.543Z,99819.88
2019-04-07T13:30:48.830Z,99827.61
2019-04-07T13:33:20.390Z,99834.37
2019-04-07T13:35:48.880Z,99825.73
2019-04-07T13:38:17.625Z,99832.10
2019-04-07T13:40:47.257Z,99826.13
2019-04-07T13:43:16.557Z,99822.80
2019-04-07T13:45:46.288Z,99831.59
2019-04-07T13:48:17.556Z,99825.45
2019-04-07T13:50:44.954Z,99822.41
2019-04-07T13:53:14.558Z,99825.51
2019-04-07T13:55:44.173Z,99827.17
2019-04-07T13:58:14.039Z,99820.77
2019-04-07T14:00:42.940Z,99823.68
2019-04-07T14:03:14.523Z,99824.22
2019-04-07T14:05:43.184Z,99814.90
2019-04-07T14:08:11.817Z,99818.41
2019-04-07T14:10:39.331Z,99822.48
2019-04-07T14:13:11.002Z,99823.39
2019-04-07T14:15:39.623Z,99826.42
2019-04-07T14:18:08.971Z,99828.22
2019-04-07T14:20:38.657Z,99828.03
2019-04-07T14:23:08.465Z,99827.80
2019-04-07T14:25:37.533Z,99822.74
2019-04-07T14:28:06.155Z,99828.28
2019-04-07T14:30:35.446Z,99825.59
2019-04-07T14:33:04.607Z,99824.33
2019-04-07T14:35:33.607Z,99819.63
2019-04-07T14:38:02.658Z,99824.28
2019-04-07T14:40:31.865Z,99823.00
2019-04-07T14:43:01.144Z,99827.95
2019-04-07T14:45:29.992Z,99832.84
2019-04-07T14:48:02.160Z,99831.92
2019-04-07T14:50:32.092Z,99817.70
2019-04-07T14:53:00.940Z,99825.50
2019-04-07T14:55:30.287Z,99826.34
2019-04-07T14:57:59.059Z,99820.88
2019-04-07T15:00:28.121Z,99827.02
2019-04-07T15:02:55.450Z,99832.08
2019-04-07T15:05:25.369Z,99822.97
2019-04-07T15:07:57.947Z,99825.81
2019-04-07T15:10:25.038Z,99824.63
2019-04-07T15:12:53.579Z,99820.05
2019-04-07T15:15:21.281Z,99826.69
2019-04-07T15:17:48.814Z,99830.05
2019-04-07T15:20:17.636Z,99833.16
2019-04-07T15:22:46.831Z,99829.50
2019-04-07T15:25:13.345Z,99835.63
2019-04-07T15:27:40.473Z,99836.59
2019-04-07T15:30:13.266Z,99836.05
2019-04-07T15:32:38.275Z,99839.08
2019-04-07T15:35:06.263Z,99840.63
2019-04-07T15:37:33.666Z,99846.28
2019-04-07T15:40:02.677Z,99835.69
2019-04-07T15:42:36.020Z,99838.61
2019-04-07T15:44:57.756Z,99838.56
2019-04-07T15:47:24.456Z,99842.49
2019-04-07T15:49:51.357Z,99842.02
2019-04-07T15:52:19.593Z,99853.73
2019-04-07T15:54:46.874Z,99863.70
2019-04-07T15:57:13.507Z,99860.77
2019-04-07T15:59:42.378Z,99854.29
2019-04-07T16:02:11.229Z,99854.87
2019-04-07T16:04:38.276Z,99860.91
2019-04-07T16:07:05.190Z,99860.55
2019-04-07T16:09:41.992Z,99863.45
2019-04-07T16:12:01.907Z,99863.58
2019-04-07T16:14:28.663Z,99864.30
2019-04-07T16:16:55.520Z,99868.84
2019-04-07T16:19:35.055Z,99870.05
2019-04-07T16:21:52.322Z,99868.58
2019-04-07T16:24:21.942Z,99881.06
2019-04-07T16:26:47.939Z,99874.81
2019-04-07T16:29:17.772Z,99879.73
2019-04-07T16:31:43.648Z,99876.74
2019-04-07T16:34:10.745Z,99879.98
2019-04-07T16:36:38.394Z,99878.19
2019-04-07T16:39:09.330Z,99878.75
2019-04-07T16:41:36.794Z,99884.58
2019-04-07T16:44:06.989Z,99881.33
2019-04-07T16:46:32.532Z,99889.85
2019-04-07T16:48:59.794Z,99884.27
2019-04-07T16:51:29.439Z,99884.30
2019-04-07T16:53:57.226Z,99888.31
2019-04-07T16:56:23.843Z,99889.28
2019-04-07T16:58:50.461Z,99890.75
2019-04-07T17:01:17.425Z,99893.95
2019-04-07T17:03:45.261Z,99890.08
2019-04-07T17:06:12.470Z,99898.69
2019-04-07T17:08:44.149Z,99888.73
2019-04-07T17:11:11.128Z,99891.09
2019-04-07T17:13:42.672Z,99901.62
2019-04-07T17:16:10.996Z,99901.34
2019-04-07T17:18:41.755Z,99906.75
2019-04-07T17:21:13.988Z,99903.83
2019-04-07T17:23:45.512Z,99900.92
2019-04-07T17:26:13.640Z,99910.86
2019-04-07T17:28:44.612Z,99913.45
2019-04-07T17:31:09.645Z,99916.37
2019-04-07T17:33:37.925Z,99918.98
2019-04-07T17:36:06.620Z,99919.41
2019-04-07T17:38:38.266Z,99923.09
2019-04-07T17:41:07.923Z,99922.33
2019-04-07T17:43:47.327Z,99923.12
2019-04-07T17:46:06.665Z,99929.23
2019-04-07T17:48:41.000Z,99927.94
2019-04-07T17:51:07.760Z,99927.91
2019-04-07T17:53:38.105Z,99926.50
2019-04-07T17:56:07.165Z,99936.70
2019-04-07T18:01:24.685Z,99934.44
2019-04-07T18:03:56.151Z,99940.44
2019-04-07T18:06:24.065Z,99939.89
2019-04-07T18:09:03.969Z,99945.25
2019-04-07T18:11:25.123Z,99950.30
2019-04-07T18:13:56.648Z,99951.03
2019-04-07T18:16:22.549Z,99951.41
2019-04-07T18:18:56.258Z,99960.12
2019-04-07T18:21:23.168Z,99951.00
2019-04-07T18:23:53.933Z,99961.89
2019-04-07T18:26:20.716Z,99955.03
2019-04-07T18:28:53.343Z,99959.73
2019-04-07T18:31:20.078Z,99959.80
2019-04-07T18:33:50.742Z,99962.19
2019-04-07T18:36:19.584Z,99959.54
2019-04-07T18:38:50.260Z,99966.30
2019-04-07T18:41:20.724Z,99969.55
2019-04-07T18:43:57.821Z,99962.05
2019-04-07T18:46:21.400Z,99974.50
2019-04-07T18:48:50.177Z,99979.57
2019-04-07T18:51:20.099Z,99978.11
2019-04-07T18:53:48.900Z,99975.67
2019-04-07T18:56:20.097Z,99980.62
2019-04-07T18:58:50.865Z,99984.70
2019-04-07T19:01:18.647Z,99984.58
2019-04-07T19:03:51.040Z,99982.94
2019-04-07T19:06:18.110Z,99984.65
2019-04-07T19:08:49.418Z,99987.28
2019-04-07T19:11:18.197Z,99986.42
2019-04-07T19:13:47.984Z,99985.25
2019-04-07T19:16:20.468Z,99985.52
2019-04-07T19:18:48.807Z,99988.31
2019-04-07T19:21:18.327Z,99972.78
2019-04-07T19:23:47.257Z,99978.06
2019-04-07T19:26:18.200Z,99974.36
2019-04-07T19:28:46.560Z,99984.23
2019-04-07T19:31:17.481Z,99978.50
2019-04-07T19:33:45.593Z,99985.26
2019-04-07T19:36:16.774Z,99985.26
2019-04-07T19:38:47.503Z,99986.02
2019-04-07T19:41:15.398Z,99983.34
2019-04-07T19:43:44.657Z,99977.59
2019-04-07T19:46:13.538Z,99981.48
2019-04-07T19:48:42.754Z,99975.66
2019-04-07T19:51:11.535Z,99976.91
2019-04-07T19:53:43.246Z,99973.77
2019-04-07T19:56:10.274Z,99968.25
2019-04-07T19:58:39.459Z,99976.64
2019-04-07T20:01:08.368Z,99976.67
2019-04-07T20:03:39.876Z,99981.22
2019-04-07T20:06:07.990Z,99977.13
2019-04-07T20:08:37.435Z,99979.70
2019-04-07T20:11:06.381Z,99976.67
2019-04-07T20:13:39.501Z,99972.46
2019-04-07T20:16:08.191Z,99980.20
2019-04-07T20:18:37.402Z,99985.97
2019-04-07T20:21:08.285Z,99979.48
2019-04-07T20:23:37.123Z,99973.94
2019-04-07T20:26:05.948Z,99980.14
2019-04-07T20:28:34.561Z,99985.37
2019-04-07T20:31:04.370Z,99986.06
2019-04-07T20:33:34.452Z,99986.94
2019-04-07T20:36:03.216Z,99986.44
2019-04-07T20:38:31.932Z,99989.69
2019-04-07T20:41:00.674Z,99993.02
2019-04-07T20:43:29.265Z,99990.18
2019-04-07T20:45:58.762Z,99989.22
2019-04-07T20:48:31.601Z,99989.55
2019-04-07T20:50:58.349Z,99997.11
2019-04-07T20:53:29.697Z,99999.16
2019-04-07T20:55:58.214Z,100000.81
2019-04-07T20:58:41.606Z,100000.11
2019-04-07T21:01:02.457Z,99997.65
2019-04-07T21:03:28.878Z,99997.89
2019-04-07T21:05:58.123Z,100004.55
2019-04-07T21:08:30.223Z,100001.88
2019-04-07T21:10:58.110Z,100003.72
2019-04-07T21:13:26.795Z,99993.95
2019-04-07T21:15:55.427Z,99997.12
2019-04-07T21:18:24.349Z,100008.00
2019-04-07T21:20:54.815Z,99998.44
2019-04-07T21:23:23.801Z,100002.78
2019-04-07T21:25:55.112Z,100008.56
2019-04-07T21:28:23.360Z,100014.52
2019-04-07T21:30:52.014Z,100006.73
2019-04-07T21:33:23.792Z,100014.62
2019-04-07T21:35:52.494Z,100007.55
2019-04-07T21:38:24.252Z,100011.97
2019-04-07T21:40:52.044Z,100008.66
2019-04-07T21:43:24.314Z,100011.61
2019-04-07T21:45:54.180Z,100012.25
2019-04-07T21:48:22.083Z,100006.86
2019-04-07T21:50:51.592Z,100006.16
2019-04-07T21:53:22.531Z,100013.44
2019-04-07T21:55:51.048Z,100011.25
2019-04-07T21:58:22.024Z,100006.20
2019-04-07T22:00:51.008Z,100005.17
2019-04-07T22:03:21.031Z,100006.11
2019-04-07T22:05:49.039Z,100003.32
2019-04-07T22:08:19.970Z,100010.05
2019-04-07T22:10:47.894Z,100003.89
2019-04-07T22:13:15.515Z,100006.83
2019-04-07T22:15:48.223Z,100004.41
2019-04-07T22:18:11.143Z,100004.73
2019-04-07T22:20:39.021Z,100002.77
2019-04-07T22:23:09.279Z,100003.37
2019-04-07T22:25:40.949Z,100006.52
2019-04-07T22:28:08.079Z,100008.02
2019-04-07T22:30:40.111Z,100009.09
2019-04-07T22:33:04.143Z,100012.12
2019-04-07T22:35:31.977Z,100001.66
2019-04-07T22:37:58.914Z,100011.47
2019-04-07T22:40:26.650Z,100003.91
2019-04-07T22:42:54.164Z,100009.04
2019-04-07T22:45:25.310Z,100008.99
2019-04-07T22:47:52.441Z,100006.34
2019-04-07T22:50:18.674Z,100004.84
2019-04-07T22:52:49.201Z,100007.39
2019-04-07T22:55:14.371Z,100004.62
2019-04-07T22:57:41.958Z,100004.86
2019-04-07T23:00:12.790Z,100009.59
2019-04-07T23:02:42.308Z,100009.45
2019-04-07T23:05:09.604Z,100010.48
2019-04-07T23:07:36.273Z,100009.83
2019-04-07T23:10:04.648Z,100014.95
2019-04-07T23:12:32.849Z,100015.42
2019-04-07T23:14:59.771Z,100011.78
2019-04-07T23:17:26.353Z,100014.38
2019-04-07T23:19:53.174Z,100015.80
2019-04-07T23:22:20.126Z,100017.31
2019-04-07T23:24:47.433Z,100012.17
2019-04-07T23:27:14.569Z,100016.15
2019-04-07T23:29:44.418Z,100021.77
2019-04-07T23:32:11.705Z,100018.47
2019-04-07T23:34:39.420Z,100012.84
2019-04-07T23:37:06.540Z,100016.00
2019-04-07T23:39:33.461Z,100016.39
2019-04-07T23:42:00.692Z,100010.03
2019-04-07T23:44:27.726Z,100010.16
2019-04-07T23:46:55.079Z,100007.39
2019-04-07T23:49:22.537Z,100008.34
2019-04-07T23:51:49.276Z,100015.66
2019-04-07T23:54:16.452Z,100018.22
2019-04-07T23:56:43.801Z,100012.80
2019-04-07T23:59:11.860Z,100016.27
